Time;durP1;ratioP1;P1;durP2;ratioP2;P2;SDS_P1;SDS_P2;PMS_P1;PMS_P2;Temp;Humidity;BMP_temperature;BMP_pressure;BME280_temperature;BME280_humidity;BME280_pressure;Samples;Min_cycle;Max_cycle;Signal;HPM_P1;HPM_P2
2022/03/17 00:02:23;;;;;;;;;;;12.70;99.90;;;;;;5026546;28;19921;-82
2022/03/17 00:04:50;;;;;;;;;;;12.70;99.90;;;;;;5026610;28;19920;-82
2022/03/17 00:07:17;;;;;;;;;;;12.70;99.90;;;;;;5012835;28;20250;-82
2022/03/17 00:09:44;;;;;;;;;;;12.70;99.90;;;;;;5026223;28;20052;-83
2022/03/17 00:12:13;;;;;;;;;;;12.70;99.90;;;;;;5011970;28;19957;-82
2022/03/17 00:14:39;;;;;;;;;;;12.60;99.90;;;;;;5016589;28;19925;-82
2022/03/17 00:17:08;;;;;;;;;;;12.60;99.90;;;;;;5020491;28;19968;-83
2022/03/17 00:19:36;;;;;;;;;;;12.60;99.90;;;;;;5017461;28;19925;-83
2022/03/17 00:22:04;;;;;;;;;;;12.60;99.90;;;;;;5011682;28;19927;-82
2022/03/17 00:24:32;;;;;;;;;;;12.60;99.90;;;;;;5024999;28;20328;-82
2022/03/17 00:26:59;;;;;;;;;;;12.60;99.90;;;;;;5035045;28;20022;-81
2022/03/17 00:29:27;;;;;;;;;;;12.60;99.90;;;;;;5030910;28;19953;-82
2022/03/17 00:31:54;;;;;;;;;;;12.50;99.90;;;;;;5031243;28;19933;-82
2022/03/17 00:34:21;;;;;;;;;;;12.50;99.90;;;;;;5014811;28;19925;-82
2022/03/17 00:36:48;;;;;;;;;;;12.50;99.90;;;;;;5017363;28;19929;-82
2022/03/17 00:39:15;;;;;;;;;;;12.50;99.90;;;;;;5012475;28;20010;-83
2022/03/17 00:41:42;;;;;;;;;;;12.50;99.90;;;;;;4994225;28;19921;-83
2022/03/17 00:44:09;;;;;;;;;;;12.50;99.90;;;;;;5012838;28;19922;-83
2022/03/17 00:46:37;;;;;;;;;;;12.50;99.90;;;;;;5013798;28;20012;-82
2022/03/17 00:49:04;;;;;;;;;;;12.40;99.90;;;;;;5032327;28;20353;-82
2022/03/17 00:51:31;;;;;;;;;;;12.40;99.90;;;;;;5034012;28;19925;-83
2022/03/17 00:53:57;;;;;;;;;;;12.40;99.90;;;;;;5043812;28;19987;-83
2022/03/17 00:56:24;;;;;;;;;;;12.40;99.90;;;;;;5038981;28;19921;-83
2022/03/17 00:58:51;;;;;;;;;;;12.40;99.90;;;;;;5032143;28;19925;-82
2022/03/17 01:01:18;;;;;;;;;;;12.40;99.90;;;;;;5030684;28;19935;-82
2022/03/17 01:03:47;;;;;;;;;;;12.40;99.90;;;;;;5023978;28;20618;-82
2022/03/17 01:06:14;;;;;;;;;;;12.40;99.90;;;;;;5030430;28;20424;-82
2022/03/17 01:08:41;;;;;;;;;;;12.40;99.90;;;;;;5026105;28;19920;-82
2022/03/17 01:11:08;;;;;;;;;;;13.10;99.90;;;;;;5030163;28;20137;-82
2022/03/17 01:13:35;;;;;;;;;;;12.40;99.90;;;;;;5030661;28;19968;-82
2022/03/17 01:16:02;;;;;;;;;;;12.40;99.90;;;;;;5031197;28;19936;-82
2022/03/17 01:18:29;;;;;;;;;;;12.40;99.90;;;;;;5030653;28;20405;-82
2022/03/17 01:20:57;;;;;;;;;;;12.40;99.90;;;;;;5030454;28;20301;-82
2022/03/17 01:23:24;;;;;;;;;;;12.50;99.90;;;;;;5033422;28;19929;-82
2022/03/17 01:25:51;;;;;;;;;;;12.50;99.90;;;;;;5034559;28;19924;-82
2022/03/17 01:28:17;;;;;;;;;;;12.50;99.90;;;;;;5025524;28;19935;-82
2022/03/17 01:30:49;;;;;;;;;;;12.50;99.90;;;;;;5014910;28;19925;-82
2022/03/17 01:33:15;;;;;;;;;;;12.70;99.90;;;;;;5020334;28;19931;-82
2022/03/17 01:35:42;;;;;;;;;;;12.50;99.90;;;;;;5030108;28;20273;-81
2022/03/17 01:38:10;;;;;;;;;;;12.40;99.90;;;;;;5025355;28;19925;-82
2022/03/17 01:40:37;;;;;;;;;;;12.40;99.90;;;;;;5015445;28;20315;-82
2022/03/17 01:43:04;;;;;;;;;;;12.40;99.90;;;;;;5000853;28;19935;-82
2022/03/17 01:45:30;;;;;;;;;;;12.40;99.90;;;;;;5026148;28;19932;-82
2022/03/17 01:47:57;;;;;;;;;;;12.40;99.90;;;;;;5036267;28;20340;-82
2022/03/17 01:50:24;;;;;;;;;;;12.40;99.90;;;;;;5017565;28;19933;-82
2022/03/17 01:52:51;;;;;;;;;;;12.40;99.90;;;;;;5024654;28;19925;-82
2022/03/17 01:55:20;;;;;;;;;;;12.50;99.90;;;;;;5044690;28;20523;-82
2022/03/17 01:57:48;;;;;;;;;;;12.40;99.90;;;;;;5038300;28;19925;-82
2022/03/17 02:00:17;;;;;;;;;;;13.90;99.90;;;;;;5035860;28;19929;-82
2022/03/17 02:02:44;;;;;;;;;;;12.40;99.90;;;;;;5032496;28;19921;-82
2022/03/17 02:05:10;;;;;;;;;;;12.40;99.90;;;;;;5036858;28;20286;-82
2022/03/17 02:07:37;;;;;;;;;;;12.40;99.90;;;;;;5030419;28;20404;-82
2022/03/17 02:10:05;;;;;;;;;;;12.50;99.90;;;;;;5018983;28;20424;-82
2022/03/17 02:15:17;;;;;;;;;;;12.40;99.90;;;;;;5014288;28;20226;-81
2022/03/17 02:17:44;;;;;;;;;;;12.40;99.90;;;;;;5014235;28;19921;-82
2022/03/17 02:20:11;;;;;;;;;;;12.40;99.90;;;;;;5013196;28;19939;-82
2022/03/17 02:22:41;;;;;;;;;;;12.40;99.90;;;;;;5013290;28;20642;-81
2022/03/17 02:27:54;;;;;;;;;;;12.40;99.90;;;;;;5019154;28;19921;-82
2022/03/17 02:30:23;;;;;;;;;;;12.40;99.90;;;;;;5038472;28;19936;-82
2022/03/17 02:32:51;;;;;;;;;;;12.40;99.90;;;;;;5039451;28;19921;-83
2022/03/17 02:35:22;;;;;;;;;;;12.40;99.90;;;;;;5037901;28;19925;-82
2022/03/17 02:37:49;;;;;;;;;;;12.40;99.90;;;;;;5036540;28;19929;-82
2022/03/17 02:40:17;;;;;;;;;;;12.40;99.90;;;;;;5030857;28;19925;-82
2022/03/17 02:42:45;;;;;;;;;;;12.40;99.90;;;;;;5025374;28;19921;-82
2022/03/17 02:45:12;;;;;;;;;;;12.40;99.90;;;;;;5032911;28;20000;-82
2022/03/17 02:47:40;;;;;;;;;;;12.40;99.90;;;;;;5029647;28;19929;-80
2022/03/17 02:50:07;;;;;;;;;;;12.40;99.90;;;;;;5029756;28;20404;-81
2022/03/17 02:52:34;;;;;;;;;;;12.40;99.90;;;;;;5012962;28;19925;-82
2022/03/17 02:55:01;;;;;;;;;;;12.40;99.90;;;;;;5018643;28;19925;-81
2022/03/17 02:57:29;;;;;;;;;;;12.40;99.90;;;;;;5015931;28;19933;-81
2022/03/17 02:59:55;;;;;;;;;;;12.40;99.90;;;;;;5034378;28;19925;-81
2022/03/17 03:02:22;;;;;;;;;;;12.40;99.90;;;;;;5034301;28;19921;-82
2022/03/17 03:04:49;;;;;;;;;;;12.40;99.90;;;;;;5025585;28;19925;-81
2022/03/17 03:07:16;;;;;;;;;;;12.50;99.90;;;;;;5024261;28;19929;-81
2022/03/17 03:09:43;;;;;;;;;;;12.50;99.90;;;;;;5034165;28;19925;-80
2022/03/17 03:12:10;;;;;;;;;;;12.50;99.90;;;;;;5015000;28;20008;-83
2022/03/17 03:14:38;;;;;;;;;;;12.50;99.90;;;;;;5035121;28;19921;-83
2022/03/17 03:17:06;;;;;;;;;;;12.50;99.90;;;;;;5026646;28;19964;-82
2022/03/17 03:19:33;;;;;;;;;;;12.50;99.90;;;;;;5034766;28;20393;-82
2022/03/17 03:21:59;;;;;;;;;;;12.40;99.90;;;;;;5032602;28;19925;-83
2022/03/17 03:24:26;;;;;;;;;;;12.40;99.90;;;;;;5037589;28;20231;-83
2022/03/17 03:26:53;;;;;;;;;;;12.40;99.90;;;;;;5035553;28;19973;-83
2022/03/17 03:29:22;;;;;;;;;;;12.40;99.90;;;;;;5035056;28;19921;-80
2022/03/17 03:31:51;;;;;;;;;;;12.40;99.90;;;;;;5036518;28;19961;-82
2022/03/17 03:34:17;;;;;;;;;;;12.40;99.90;;;;;;5005996;28;19935;-80
2022/03/17 03:39:29;;;;;;;;;;;12.40;99.90;;;;;;5037456;28;19932;-81
2022/03/17 03:41:55;;;;;;;;;;;12.40;99.90;;;;;;5041708;28;20023;-81
2022/03/17 03:44:22;;;;;;;;;;;13.90;99.90;;;;;;5040850;28;20367;-81
2022/03/17 03:46:49;;;;;;;;;;;12.40;99.90;;;;;;5039075;28;19925;-80
2022/03/17 03:49:17;;;;;;;;;;;12.40;99.90;;;;;;5040969;28;19971;-81
2022/03/17 03:51:44;;;;;;;;;;;12.40;99.90;;;;;;5041239;28;19925;-80
2022/03/17 03:54:17;;;;;;;;;;;12.40;99.90;;;;;;5039616;28;19996;-81
2022/03/17 03:56:44;;;;;;;;;;;12.40;99.90;;;;;;5027921;28;19952;-81
2022/03/17 03:59:15;;;;;;;;;;;12.40;99.90;;;;;;5018283;28;19925;-81
2022/03/17 04:01:42;;;;;;;;;;;12.40;99.90;;;;;;4998601;28;20004;-81
2022/03/17 04:04:08;;;;;;;;;;;12.40;99.90;;;;;;5035234;28;19936;-84
2022/03/17 04:06:37;;;;;;;;;;;12.40;99.90;;;;;;5031098;28;19948;-81
2022/03/17 04:09:04;;;;;;;;;;;12.40;99.90;;;;;;5014272;28;19967;-81
2022/03/17 04:11:30;;;;;;;;;;;12.40;99.90;;;;;;5012703;28;19941;-81
2022/03/17 04:13:57;;;;;;;;;;;12.40;99.90;;;;;;5015612;28;19925;-81
2022/03/17 04:16:24;;;;;;;;;;;12.40;99.90;;;;;;5014111;28;19929;-81
2022/03/17 04:18:51;;;;;;;;;;;12.40;99.90;;;;;;5041825;28;20580;-82
2022/03/17 04:21:18;;;;;;;;;;;12.30;99.90;;;;;;5031468;28;19925;-81
2022/03/17 04:23:46;;;;;;;;;;;12.30;99.90;;;;;;5028776;28;19971;-80
2022/03/17 04:26:12;;;;;;;;;;;12.30;99.90;;;;;;5011889;28;19929;-81
2022/03/17 04:28:40;;;;;;;;;;;12.20;99.90;;;;;;5014303;28;20024;-81
2022/03/17 04:31:07;;;;;;;;;;;12.10;99.90;;;;;;5020682;28;19954;-81
2022/03/17 04:33:34;;;;;;;;;;;12.10;99.90;;;;;;5026789;28;19925;-81
2022/03/17 04:36:01;;;;;;;;;;;12.70;99.90;;;;;;5019648;28;20562;-82
2022/03/17 04:38:28;;;;;;;;;;;12.00;99.90;;;;;;5012402;28;20009;-82
2022/03/17 04:40:56;;;;;;;;;;;11.90;99.90;;;;;;5011628;28;19925;-82
2022/03/17 04:43:23;;;;;;;;;;;11.90;99.90;;;;;;5024231;28;20436;-82
2022/03/17 04:45:50;;;;;;;;;;;11.80;99.90;;;;;;5025310;28;19924;-81
2022/03/17 04:48:16;;;;;;;;;;;11.80;99.90;;;;;;5034751;28;19921;-82
2022/03/17 04:50:43;;;;;;;;;;;11.70;99.90;;;;;;5031977;28;19930;-81
2022/03/17 04:53:27;;;;;;;;;;;11.70;99.90;;;;;;5032138;28;20035;-82
2022/03/17 04:55:54;;;;;;;;;;;11.60;99.90;;;;;;5010899;28;20361;-82
2022/03/17 04:58:22;;;;;;;;;;;11.60;99.90;;;;;;5021137;28;20011;-82
2022/03/17 05:00:51;;;;;;;;;;;11.50;99.90;;;;;;5030882;28;19921;-82
2022/03/17 05:03:17;;;;;;;;;;;11.50;99.90;;;;;;5022929;28;19932;-82
2022/03/17 05:05:44;;;;;;;;;;;11.40;99.90;;;;;;5022731;28;20392;-82
2022/03/17 05:08:11;;;;;;;;;;;11.40;99.90;;;;;;5021979;28;19925;-82
2022/03/17 05:10:38;;;;;;;;;;;11.40;99.90;;;;;;5012523;28;19937;-81
2022/03/17 05:13:05;;;;;;;;;;;11.30;99.90;;;;;;5018241;28;19921;-82
2022/03/17 05:15:34;;;;;;;;;;;11.30;99.90;;;;;;5016065;28;20393;-82
2022/03/17 05:18:02;;;;;;;;;;;11.20;99.90;;;;;;5013662;28;19931;-82
2022/03/17 05:20:29;;;;;;;;;;;11.10;99.90;;;;;;5011369;28;20031;-83
2022/03/17 05:22:55;;;;;;;;;;;11.10;99.90;;;;;;5026379;28;19925;-82
2022/03/17 05:25:22;;;;;;;;;;;11.00;99.90;;;;;;5031682;28;19933;-81
2022/03/17 05:27:49;;;;;;;;;;;11.00;99.90;;;;;;5017085;28;20131;-81
2022/03/17 05:30:18;;;;;;;;;;;11.00;99.90;;;;;;5018709;28;20408;-84
2022/03/17 05:32:47;;;;;;;;;;;11.00;99.90;;;;;;5025068;28;19925;-82
2022/03/17 05:35:15;;;;;;;;;;;11.00;99.90;;;;;;5022432;28;20333;-83
2022/03/17 05:37:42;;;;;;;;;;;10.20;99.90;;;;;;5025521;28;19909;-85
2022/03/17 05:40:13;;;;;;;;;;;10.90;99.90;;;;;;5047426;28;19984;-85
2022/03/17 05:42:40;;;;;;;;;;;10.90;99.90;;;;;;5029285;28;19937;-83
2022/03/17 05:45:10;;;;;;;;;;;10.90;99.90;;;;;;5026198;28;19933;-83
2022/03/17 05:48:01;;;;;;;;;;;10.80;99.90;;;;;;5032175;28;19921;-83
2022/03/17 05:50:30;;;;;;;;;;;10.80;99.90;;;;;;5029237;28;19968;-84
2022/03/17 05:52:57;;;;;;;;;;;10.80;99.90;;;;;;5029843;28;19932;-84
2022/03/17 05:55:26;;;;;;;;;;;10.70;99.90;;;;;;5014161;28;19925;-84
2022/03/17 05:57:55;;;;;;;;;;;10.70;99.90;;;;;;5013890;28;19998;-84
2022/03/17 06:00:23;;;;;;;;;;;10.70;99.90;;;;;;5018632;28;19945;-84
2022/03/17 06:02:50;;;;;;;;;;;10.70;99.90;;;;;;5025715;28;19925;-83
2022/03/17 06:05:17;;;;;;;;;;;10.70;99.90;;;;;;5021570;28;19930;-85
2022/03/17 06:07:46;;;;;;;;;;;10.60;99.90;;;;;;5024427;28;20032;-85
2022/03/17 06:10:14;;;;;;;;;;;10.60;99.90;;;;;;5035269;28;19925;-83
2022/03/17 06:12:43;;;;;;;;;;;10.50;99.90;;;;;;5021306;28;19921;-85
2022/03/17 06:15:11;;;;;;;;;;;10.50;99.90;;;;;;5018766;28;19940;-84
2022/03/17 06:17:39;;;;;;;;;;;10.40;99.90;;;;;;5028128;28;19925;-84
2022/03/17 06:20:07;;;;;;;;;;;10.30;99.90;;;;;;5024909;28;19999;-84
2022/03/17 06:22:34;;;;;;;;;;;10.20;99.90;;;;;;5030783;28;19921;-84
2022/03/17 06:25:02;;;;;;;;;;;10.10;99.90;;;;;;5006854;28;19925;-84
2022/03/17 06:27:29;;;;;;;;;;;10.00;99.90;;;;;;5020934;28;19928;-84
2022/03/17 06:29:56;;;;;;;;;;;9.90;99.90;;;;;;5022943;28;20401;-84
2022/03/17 06:32:24;;;;;;;;;;;9.90;99.90;;;;;;5029031;28;19952;-85
2022/03/17 06:34:50;;;;;;;;;;;9.80;99.90;;;;;;5037113;28;20008;-84
2022/03/17 06:37:17;;;;;;;;;;;9.80;99.90;;;;;;5024341;28;20007;-83
2022/03/17 06:39:44;;;;;;;;;;;9.70;99.90;;;;;;5029284;28;20392;-83
2022/03/17 06:42:12;;;;;;;;;;;9.70;99.90;;;;;;5034881;28;19932;-82
2022/03/17 06:44:39;;;;;;;;;;;9.70;99.90;;;;;;5033509;28;20354;-82
2022/03/17 06:47:05;;;;;;;;;;;9.70;99.90;;;;;;5031068;28;19965;-82
2022/03/17 06:49:32;;;;;;;;;;;9.70;99.90;;;;;;5025364;28;19925;-83
2022/03/17 06:52:00;;;;;;;;;;;9.70;99.90;;;;;;5016162;28;19921;-83
2022/03/17 06:54:27;;;;;;;;;;;9.70;99.90;;;;;;5015565;28;19921;-82
2022/03/17 06:56:53;;;;;;;;;;;9.70;99.90;;;;;;5023438;28;19925;-83
2022/03/17 06:59:21;;;;;;;;;;;9.70;99.90;;;;;;5028919;28;20003;-81
2022/03/17 07:01:48;;;;;;;;;;;9.70;99.90;;;;;;5035006;28;19987;-85
2022/03/17 07:04:15;;;;;;;;;;;9.60;99.90;;;;;;5034073;28;19932;-82
2022/03/17 07:06:43;;;;;;;;;;;9.60;99.90;;;;;;5040192;28;19971;-82
2022/03/17 07:09:09;;;;;;;;;;;9.60;99.90;;;;;;5052374;28;19956;-83
2022/03/17 07:11:37;;;;;;;;;;;8.90;99.90;;;;;;5046492;28;19927;-81
2022/03/17 07:14:04;;;;;;;;;;;9.60;99.90;;;;;;5032403;28;19924;-82
2022/03/17 07:16:32;;;;;;;;;;;9.60;99.90;;;;;;5030557;28;19925;-82
2022/03/17 07:18:59;;;;;;;;;;;9.60;99.90;;;;;;5036219;28;19996;-82
2022/03/17 07:21:26;;;;;;;;;;;9.50;99.90;;;;;;5020471;28;19928;-83
2022/03/17 07:23:52;;;;;;;;;;;9.60;99.90;;;;;;5016149;28;19941;-82
2022/03/17 07:26:19;;;;;;;;;;;9.50;99.90;;;;;;5016661;28;19925;-81
2022/03/17 07:28:49;;;;;;;;;;;9.50;99.90;;;;;;5019344;28;19988;-81
2022/03/17 07:31:15;;;;;;;;;;;9.50;99.90;;;;;;5036030;28;19925;-81
2022/03/17 07:33:45;;;;;;;;;;;7.80;99.90;;;;;;5038632;28;20313;-82
2022/03/17 07:36:11;;;;;;;;;;;9.50;99.90;;;;;;5037602;28;20373;-81
2022/03/17 07:38:39;;;;;;;;;;;9.50;99.90;;;;;;5039705;28;19925;-82
2022/03/17 07:41:07;;;;;;;;;;;9.60;99.90;;;;;;5047518;28;19932;-84
2022/03/17 07:43:34;;;;;;;;;;;9.60;99.90;;;;;;5040901;28;19955;-81
2022/03/17 07:46:20;;;;;;;;;;;9.60;99.90;;;;;;5019854;28;19920;-81
2022/03/17 07:49:06;;;;;;;;;;;9.70;99.90;;;;;;5036514;28;19923;-83
2022/03/17 07:51:39;;;;;;;;;;;9.80;99.90;;;;;;5020749;28;19986;-81
2022/03/17 07:54:05;;;;;;;;;;;9.80;99.90;;;;;;5044860;28;20023;-82
2022/03/17 07:56:32;;;;;;;;;;;9.80;99.90;;;;;;5036848;28;20032;-82
2022/03/17 07:58:59;;;;;;;;;;;9.70;99.90;;;;;;5028356;28;19983;-82
2022/03/17 08:01:26;;;;;;;;;;;9.70;99.90;;;;;;5037482;28;20353;-83
2022/03/17 08:03:54;;;;;;;;;;;9.60;99.90;;;;;;5012787;28;19925;-82
2022/03/17 08:06:23;;;;;;;;;;;9.60;99.90;;;;;;5014018;28;20020;-82
2022/03/17 08:08:50;;;;;;;;;;;9.60;99.90;;;;;;5005704;28;19961;-84
2022/03/17 08:11:17;;;;;;;;;;;9.50;99.90;;;;;;5032014;28;19924;-84
2022/03/17 08:13:45;;;;;;;;;;;9.50;99.90;;;;;;5037000;28;19921;-83
2022/03/17 08:16:12;;;;;;;;;;;9.50;99.90;;;;;;5031554;28;19936;-84
2022/03/17 08:18:39;;;;;;;;;;;9.50;99.90;;;;;;5032520;28;20111;-83
2022/03/17 08:21:06;;;;;;;;;;;9.50;99.90;;;;;;5021559;28;19932;-84
2022/03/17 08:23:34;;;;;;;;;;;9.60;99.90;;;;;;5020541;28;20020;-83
2022/03/17 08:26:01;;;;;;;;;;;9.60;99.90;;;;;;5036738;28;19929;-84
2022/03/17 08:28:28;;;;;;;;;;;9.50;99.90;;;;;;5032732;28;19921;-83
2022/03/17 08:30:55;;;;;;;;;;;;;;;;;;5025509;28;19929;-82
2022/03/17 08:33:24;;;;;;;;;;;9.50;99.90;;;;;;5017799;28;19925;-83
2022/03/17 08:35:52;;;;;;;;;;;9.50;99.90;;;;;;5025709;28;19925;-82
2022/03/17 08:38:18;;;;;;;;;;;9.50;99.90;;;;;;5021836;28;19948;-82
2022/03/17 08:40:47;;;;;;;;;;;9.50;99.90;;;;;;5031227;28;19956;-83
2022/03/17 08:43:14;;;;;;;;;;;9.60;99.90;;;;;;5037123;28;19921;-83
2022/03/17 08:51:11;;;;;;;;;;;10.00;99.90;;;;;;5021871;28;19921;-83
2022/03/17 08:53:38;;;;;;;;;;;10.00;99.90;;;;;;5038411;28;19925;-82
2022/03/17 08:56:06;;;;;;;;;;;10.10;99.90;;;;;;5026058;28;19984;-82
2022/03/17 08:58:35;;;;;;;;;;;10.20;99.90;;;;;;5032739;28;20007;-82
2022/03/17 09:01:02;;;;;;;;;;;10.30;99.90;;;;;;5033244;28;19967;-83
2022/03/17 09:03:30;;;;;;;;;;;10.30;99.90;;;;;;5022902;28;20008;-83
2022/03/17 09:05:58;;;;;;;;;;;10.50;99.90;;;;;;5023191;28;19980;-83
2022/03/17 09:08:25;;;;;;;;;;;10.60;99.90;;;;;;5024555;28;19921;-84
2022/03/17 09:10:51;;;;;;;;;;;10.70;99.90;;;;;;5013324;28;20009;-83
2022/03/17 09:13:20;;;;;;;;;;;9.90;99.90;;;;;;5030918;28;20358;-83
2022/03/17 09:15:47;;;;;;;;;;;10.70;99.90;;;;;;5014355;28;19925;-83
2022/03/17 09:18:14;;;;;;;;;;;10.80;99.90;;;;;;5028158;28;19951;-83
2022/03/17 09:20:41;;;;;;;;;;;10.80;99.90;;;;;;5025697;28;20028;-83
2022/03/17 09:23:08;;;;;;;;;;;10.90;99.90;;;;;;5014426;28;19960;-83
2022/03/17 09:25:36;;;;;;;;;;;11.00;99.90;;;;;;5024855;28;19921;-83
2022/03/17 09:28:03;;;;;;;;;;;11.10;99.90;;;;;;5038185;28;19941;-83
2022/03/17 09:30:32;;;;;;;;;;;11.20;99.90;;;;;;5017843;28;19925;-83
2022/03/17 09:33:01;;;;;;;;;;;11.30;99.90;;;;;;5003164;28;20020;-83
2022/03/17 09:35:28;;;;;;;;;;;11.30;99.90;;;;;;5003655;28;19922;-83
2022/03/17 09:37:54;;;;;;;;;;;11.40;99.90;;;;;;5018415;28;19925;-83
2022/03/17 09:40:21;;;;;;;;;;;11.50;99.90;;;;;;5020837;28;20016;-83
2022/03/17 09:42:48;;;;;;;;;;;11.40;99.90;;;;;;5026111;28;19939;-83
2022/03/17 09:45:15;;;;;;;;;;;11.40;99.90;;;;;;5018569;28;20448;-83
2022/03/17 09:47:44;;;;;;;;;;;11.50;99.90;;;;;;5018316;28;19926;-85
2022/03/17 09:50:14;;;;;;;;;;;11.60;99.90;;;;;;5003869;28;19992;-82
2022/03/17 09:52:42;;;;;;;;;;;11.60;99.90;;;;;;5028671;28;20049;-83
2022/03/17 09:55:10;;;;;;;;;;;11.50;99.90;;;;;;5017364;28;19997;-83
2022/03/17 09:57:37;;;;;;;;;;;11.50;99.90;;;;;;5035102;28;19975;-83
2022/03/17 10:00:04;;;;;;;;;;;11.50;99.90;;;;;;5035469;28;19943;-83
2022/03/17 10:02:35;;;;;;;;;;;11.50;99.90;;;;;;5030379;28;20053;-83
2022/03/17 10:05:03;;;;;;;;;;;11.30;99.90;;;;;;5023181;28;20415;-83
2022/03/17 10:07:34;;;;;;;;;;;11.30;99.90;;;;;;5025815;28;19921;-83
2022/03/17 10:10:01;;;;;;;;;;;11.10;99.90;;;;;;5036119;28;19925;-83
2022/03/17 10:12:30;;;;;;;;;;;11.10;99.90;;;;;;5035631;28;19979;-83
2022/03/17 10:14:57;;;;;;;;;;;11.10;99.90;;;;;;5032968;28;19932;-83
2022/03/17 10:17:32;;;;;;;;;;;11.10;99.90;;;;;;5034921;28;19936;-82
2022/03/17 10:20:13;;;;;;;;;;;11.20;99.90;;;;;;5032214;28;19925;-85
2022/03/17 10:22:43;;;;;;;;;;;11.20;99.90;;;;;;5035645;28;19925;-84
2022/03/17 10:25:12;;;;;;;;;;;11.20;99.90;;;;;;5025004;28;20016;-83
2022/03/17 10:27:40;;;;;;;;;;;11.20;99.90;;;;;;5017808;28;19925;-84
2022/03/17 10:30:08;;;;;;;;;;;11.30;99.90;;;;;;5021413;28;19925;-83
2022/03/17 10:32:34;;;;;;;;;;;11.30;99.90;;;;;;5032760;28;20393;-83
2022/03/17 10:35:01;;;;;;;;;;;11.30;99.90;;;;;;5028386;28;19921;-83
2022/03/17 10:37:31;;;;;;;;;;;11.40;99.90;;;;;;5028463;28;19925;-83
2022/03/17 10:39:59;;;;;;;;;;;11.40;99.90;;;;;;5019835;28;19925;-83
2022/03/17 10:42:26;;;;;;;;;;;11.30;99.90;;;;;;5017470;28;19941;-83
2022/03/17 10:44:55;;;;;;;;;;;11.40;99.90;;;;;;5015944;28;19929;-82
2022/03/17 10:47:25;;;;;;;;;;;11.40;99.90;;;;;;5022825;28;19991;-82
2022/03/17 10:50:00;;;;;;;;;;;11.50;99.90;;;;;;5035626;28;20304;-82
2022/03/17 10:52:26;;;;;;;;;;;11.60;99.90;;;;;;5025236;28;19925;-82
2022/03/17 10:54:58;;;;;;;;;;;11.80;99.90;;;;;;5027453;28;19936;-82
2022/03/17 10:57:27;;;;;;;;;;;12.00;99.90;;;;;;5028623;28;20056;-81
2022/03/17 10:59:55;;;;;;;;;;;12.20;99.90;;;;;;5035994;28;20053;-82
2022/03/17 11:02:25;;;;;;;;;;;12.60;99.90;;;;;;5029418;28;19929;-82
2022/03/17 11:04:55;;;;;;;;;;;13.00;99.90;;;;;;5022401;28;19936;-81
2022/03/17 11:07:23;;;;;;;;;;;13.50;99.90;;;;;;5028967;28;19988;-82
2022/03/17 11:09:50;;;;;;;;;;;13.90;99.90;;;;;;5022060;28;19934;-83
2022/03/17 11:12:20;;;;;;;;;;;14.20;99.90;;;;;;5027035;28;19932;-82
2022/03/17 11:14:49;;;;;;;;;;;14.40;99.90;;;;;;5026281;28;19956;-82
2022/03/17 11:17:19;;;;;;;;;;;14.70;99.90;;;;;;5036233;28;19975;-83
2022/03/17 11:19:46;;;;;;;;;;;15.10;99.90;;;;;;5052466;28;19925;-84
2022/03/17 11:22:14;;;;;;;;;;;15.20;99.90;;;;;;5029927;28;20011;-82
2022/03/17 11:24:41;;;;;;;;;;;15.20;99.90;;;;;;5035883;28;20062;-82
2022/03/17 11:27:09;;;;;;;;;;;15.40;99.90;;;;;;5035837;28;20016;-82
2022/03/17 11:29:41;;;;;;;;;;;15.50;99.90;;;;;;5004728;28;20413;-83
2022/03/17 11:32:24;;;;;;;;;;;15.70;99.90;;;;;;5027231;28;19929;-83
2022/03/17 11:34:51;;;;;;;;;;;15.70;99.90;;;;;;5022749;28;19925;-83
2022/03/17 11:37:26;;;;;;;;;;;15.60;99.90;;;;;;5033556;28;19937;-83
2022/03/17 11:39:54;;;;;;;;;;;15.50;99.90;;;;;;5020055;28;19944;-83
2022/03/17 11:42:35;;;;;;;;;;;15.40;99.90;;;;;;5001658;28;20281;-83
2022/03/17 11:45:04;;;;;;;;;;;15.50;99.90;;;;;;5021478;28;20024;-84
2022/03/17 11:47:36;;;;;;;;;;;15.50;99.90;;;;;;5020576;28;20000;-83
2022/03/17 11:50:03;;;;;;;;;;;;;;;;;;5024452;28;19982;-83
2022/03/17 11:52:30;;;;;;;;;;;15.50;99.90;;;;;;5017840;28;19926;-83
2022/03/17 11:55:11;;;;;;;;;;;15.50;99.90;;;;;;5016946;28;19925;-81
2022/03/17 11:57:38;;;;;;;;;;;15.50;99.90;;;;;;5028169;28;19925;-84
2022/03/17 12:00:07;;;;;;;;;;;15.50;99.90;;;;;;5032205;28;19964;-83
2022/03/17 12:02:37;;;;;;;;;;;15.40;99.90;;;;;;5024542;28;20023;-83
2022/03/17 12:05:11;;;;;;;;;;;15.30;99.90;;;;;;5018371;28;19932;-83
2022/03/17 12:07:46;;;;;;;;;;;15.10;99.90;;;;;;5033211;28;19936;-83
2022/03/17 12:10:12;;;;;;;;;;;15.00;99.90;;;;;;5031549;28;19929;-81
2022/03/17 12:12:40;;;;;;;;;;;14.90;99.90;;;;;;5025615;28;19928;-82
2022/03/17 12:15:10;;;;;;;;;;;14.80;99.90;;;;;;5017669;28;20548;-82
2022/03/17 12:17:37;;;;;;;;;;;14.70;99.90;;;;;;5014501;28;20450;-83
2022/03/17 12:20:05;;;;;;;;;;;14.70;99.90;;;;;;5023724;28;19954;-85
2022/03/17 12:22:39;;;;;;;;;;;14.70;99.90;;;;;;5015918;28;19921;-83
2022/03/17 12:25:16;;;;;;;;;;;14.70;99.90;;;;;;5032048;28;19999;-84
2022/03/17 12:27:44;;;;;;;;;;;14.80;99.90;;;;;;5018783;28;19929;-83
2022/03/17 12:30:13;;;;;;;;;;;14.90;99.90;;;;;;5032703;28;19925;-83
2022/03/17 12:32:45;;;;;;;;;;;14.80;99.90;;;;;;5033536;28;19921;-83
2022/03/17 12:35:12;;;;;;;;;;;14.80;99.90;;;;;;5021237;28;20366;-82
2022/03/17 12:37:40;;;;;;;;;;;14.80;99.90;;;;;;5017104;28;19925;-83
2022/03/17 12:40:08;;;;;;;;;;;14.90;99.90;;;;;;5017520;28;19925;-84
2022/03/17 12:42:38;;;;;;;;;;;15.00;99.90;;;;;;5014535;28;19925;-84
2022/03/17 12:45:06;;;;;;;;;;;14.90;99.90;;;;;;5014564;28;19928;-84
2022/03/17 12:47:35;;;;;;;;;;;14.80;99.90;;;;;;5023196;28;19928;-84
2022/03/17 12:50:04;;;;;;;;;;;14.80;99.90;;;;;;5004283;28;20032;-83
2022/03/17 12:52:32;;;;;;;;;;;14.80;99.90;;;;;;5011716;28;19929;-84
2022/03/17 12:55:00;;;;;;;;;;;14.70;99.90;;;;;;5030064;28;19921;-83
2022/03/17 12:57:28;;;;;;;;;;;14.60;99.90;;;;;;5031220;28;19921;-84
2022/03/17 12:59:55;;;;;;;;;;;14.50;99.90;;;;;;5032820;28;19939;-84
2022/03/17 13:02:25;;;;;;;;;;;14.40;99.90;;;;;;5008457;28;19929;-83
2022/03/17 13:04:54;;;;;;;;;;;14.30;99.90;;;;;;5013458;28;19924;-83
2022/03/17 13:07:24;;;;;;;;;;;14.20;99.90;;;;;;5017064;28;19971;-82
2022/03/17 13:09:51;;;;;;;;;;;14.00;99.90;;;;;;5023862;28;19981;-84
2022/03/17 13:15:04;;;;;;;;;;;13.70;99.90;;;;;;5024597;28;20022;-83
2022/03/17 13:17:32;;;;;;;;;;;13.60;99.90;;;;;;5032488;28;19921;-84
2022/03/17 13:20:00;;;;;;;;;;;13.60;99.90;;;;;;5015262;28;20109;-83
2022/03/17 13:22:29;;;;;;;;;;;13.70;99.90;;;;;;5026266;28;19925;-83
2022/03/17 13:25:06;;;;;;;;;;;13.80;99.90;;;;;;5034139;28;19921;-84
2022/03/17 13:27:33;;;;;;;;;;;13.90;99.90;;;;;;5025289;28;20255;-85
2022/03/17 13:30:02;;;;;;;;;;;13.90;99.90;;;;;;5046211;28;19921;-86
2022/03/17 13:32:29;;;;;;;;;;;13.90;99.90;;;;;;5037564;28;20008;-83
2022/03/17 13:35:01;;;;;;;;;;;13.90;99.90;;;;;;5034340;28;19921;-84
2022/03/17 13:37:35;;;;;;;;;;;13.90;99.90;;;;;;5025397;28;19937;-84
2022/03/17 13:40:03;;;;;;;;;;;13.90;99.90;;;;;;5031740;28;19972;-84
2022/03/17 13:42:29;;;;;;;;;;;13.90;99.90;;;;;;5033455;28;19948;-83
2022/03/17 13:44:57;;;;;;;;;;;13.90;99.90;;;;;;5025355;28;19931;-82
2022/03/17 13:47:25;;;;;;;;;;;13.90;99.90;;;;;;5019314;28;19925;-81
2022/03/17 13:50:16;;;;;;;;;;;13.80;99.90;;;;;;5002693;28;19976;-82
2022/03/17 13:52:44;;;;;;;;;;;13.70;99.90;;;;;;5005220;28;19960;-82
2022/03/17 13:55:13;;;;;;;;;;;13.50;99.90;;;;;;5016978;28;20024;-82
2022/03/17 13:57:42;;;;;;;;;;;13.50;99.90;;;;;;5007784;28;19936;-81
2022/03/17 14:00:19;;;;;;;;;;;13.50;99.90;;;;;;5010539;28;19933;-83
2022/03/17 14:02:46;;;;;;;;;;;13.60;99.90;;;;;;5015641;28;19984;-82
2022/03/17 14:05:15;;;;;;;;;;;13.60;99.90;;;;;;5016640;28;19948;-84
2022/03/17 14:07:42;;;;;;;;;;;13.60;99.90;;;;;;5010379;28;20019;-82
2022/03/17 14:10:09;;;;;;;;;;;13.50;99.90;;;;;;5029165;28;19925;-83
2022/03/17 14:12:39;;;;;;;;;;;13.50;99.90;;;;;;5027933;28;19979;-82
2022/03/17 14:15:06;;;;;;;;;;;13.50;99.90;;;;;;5028496;28;20023;-82
2022/03/17 14:17:34;;;;;;;;;;;13.60;99.90;;;;;;5027172;28;19925;-82
2022/03/17 14:20:02;;;;;;;;;;;13.60;99.90;;;;;;5016010;28;20418;-81
2022/03/17 14:25:15;;;;;;;;;;;13.70;99.90;;;;;;5037821;28;20003;-81
2022/03/17 14:27:42;;;;;;;;;;;13.70;99.90;;;;;;5038170;28;19944;-83
2022/03/17 14:30:09;;;;;;;;;;;13.50;99.90;;;;;;5040417;28;19932;-81
2022/03/17 14:32:38;;;;;;;;;;;13.30;99.90;;;;;;5040907;28;19949;-83
2022/03/17 14:35:05;;;;;;;;;;;13.30;99.90;;;;;;5029872;28;19929;-81
2022/03/17 14:37:33;;;;;;;;;;;13.30;99.90;;;;;;5042004;28;19932;-81
2022/03/17 14:40:00;;;;;;;;;;;13.40;99.90;;;;;;5031596;28;19931;-83
2022/03/17 14:42:27;;;;;;;;;;;13.40;99.90;;;;;;5031585;28;19921;-81
2022/03/17 14:44:54;;;;;;;;;;;13.40;99.90;;;;;;5025304;28;19925;-82